Etusivu
METAR-TAF:

METAR-TAF

Lentoasemat :

Quillayute Airport

Forks, Washington, Yhdysvallat

Leveyspiiri: 47-56-15N, Pituuspiiri: 124-33-18W, korkeus merenpinnasta: 59 m

Tämänhetkinen sää

Tämä raportti tehtiin 55 minuuttia sitten, kello 01.53 UTC
Tuuli 3 kn idästä
Lämpötila 5°C
Kosteus 93%
Ilmanpaine 1026 hPa
Näkyvyys: 14.5 km
selkeää

METAR: KUIL 230153Z AUTO 09003KT 9SM CLR 05/04 A3029 RMK AO2 SLP261 T00500044

Aika: 18:48 (02:48 UTC)


TAF: puuttuu

Säähavainnot ja -ennusteet yli 4000 lentoasemalta (METAR- ja TAF-raportit).

Käytössä olevat sääasemat on merkitty karttaan keltaisilla ja punaisilla pisteillä.

Aseta hiiri pisteen päälle nähdäksesi sääaseman nimen.

Klikkaa sitten nähdäksesi säähavainnot ja -ennusteet.

Kartan vaihtaminen: klikkaa mustalla rastilla varustettuja vihreitä pisteitä, niin voit zoomata sisään; viivalla varustettua vihreää pistettä, niin voit zoomata ulos tai vihreitä nuolia, niin pääset viereisille kartoille.


METAR-TAF: